Time;durP1;ratioP1;P1;durP2;ratioP2;P2;SDS_P1;SDS_P2;PMS_P1;PMS_P2;Temp;Humidity;BMP_temperature;BMP_pressure;BME280_temperature;BME280_humidity;BME280_pressure;Samples;Min_cycle;Max_cycle;Signal;HPM_P1;HPM_P2
2021/05/29 00:01:32;;;;;;;2.45;1.77;;;15.00;69.30;;;;;;5075277;28;20097;-84
2021/05/29 00:03:58;;;;;;;2.50;1.38;;;14.90;68.00;;;;;;5056806;28;20081;-81
2021/05/29 00:06:24;;;;;;;2.30;1.40;;;14.90;68.30;;;;;;5056549;28;20020;-82
2021/05/29 00:08:49;;;;;;;3.25;1.20;;;14.90;67.90;;;;;;5056640;28;20021;-79
2021/05/29 00:11:15;;;;;;;3.83;1.45;;;14.90;68.40;;;;;;5073462;28;20111;-78
2021/05/29 00:13:42;;;;;;;1.40;1.30;;;14.90;68.60;;;;;;5056710;28;20393;-79
2021/05/29 00:16:09;;;;;;;3.08;1.10;;;14.90;68.70;;;;;;5056480;28;20066;-80
2021/05/29 00:18:36;;;;;;;1.88;1.30;;;14.80;69.20;;;;;;5056907;28;20027;-80
2021/05/29 00:21:02;;;;;;;1.42;1.10;;;14.80;69.20;;;;;;5056442;28;20362;-79
2021/05/29 00:23:28;;;;;;;3.17;1.02;;;14.80;69.80;;;;;;5054099;28;20051;-81
2021/05/29 00:25:54;;;;;;;1.65;1.15;;;14.70;69.80;;;;;;5054401;28;20021;-79
2021/05/29 00:28:19;;;;;;;1.60;1.00;;;14.70;70.00;;;;;;5036034;28;20033;-79
2021/05/29 00:30:45;;;;;;;2.08;1.38;;;14.60;70.40;;;;;;5053886;28;20532;-79
2021/05/29 00:33:11;;;;;;;1.48;1.20;;;14.70;70.10;;;;;;5037766;28;20628;-81
2021/05/29 00:35:37;;;;;;;2.25;1.20;;;14.70;69.60;;;;;;5054429;28;20051;-82
2021/05/29 00:38:04;;;;;;;2.05;1.42;;;14.70;69.50;;;;;;5052616;28;20488;-79
2021/05/29 00:40:30;;;;;;;1.23;0.90;;;14.70;69.80;;;;;;5036501;28;20025;-79
2021/05/29 00:42:56;;;;;;;2.08;1.33;;;14.60;70.40;;;;;;5046026;28;20062;-78
2021/05/29 00:45:22;;;;;;;1.40;1.27;;;14.50;70.90;;;;;;5043900;28;20064;-78
2021/05/29 00:47:48;;;;;;;2.40;1.30;;;14.50;71.10;;;;;;5037993;28;20020;-77
2021/05/29 00:50:14;;;;;;;2.05;1.25;;;14.50;71.10;;;;;;5055047;28;20342;-79
2021/05/29 00:52:40;;;;;;;2.20;1.60;;;14.50;69.90;;;;;;5055843;28;20115;-77
2021/05/29 00:55:12;;;;;;;2.30;1.20;;;14.50;69.90;;;;;;5055364;28;20128;-78
2021/05/29 00:57:40;;;;;;;1.77;1.10;;;14.50;69.80;;;;;;5055613;28;20457;-77
2021/05/29 01:00:07;;;;;;;3.03;1.20;;;14.50;69.60;;;;;;5073215;28;20096;-78
2021/05/29 01:02:33;;;;;;;1.95;1.23;;;14.50;69.70;;;;;;5073372;28;20519;-78
2021/05/29 01:04:59;;;;;;;1.50;1.20;;;14.50;69.80;;;;;;5055655;28;20029;-79
2021/05/29 01:07:25;;;;;;;1.33;1.13;;;14.50;70.70;;;;;;5055642;28;20052;-83
2021/05/29 01:09:50;;;;;;;2.15;1.40;;;14.50;70.30;;;;;;5056283;28;20048;-85
2021/05/29 01:12:19;;;;;;;3.83;1.65;;;14.50;70.00;;;;;;5054958;28;20013;-79
2021/05/29 01:14:57;;;;;;;1.85;1.58;;;14.50;70.00;;;;;;5046520;28;20477;-78
2021/05/29 01:17:24;;;;;;;3.28;1.65;;;14.50;70.20;;;;;;5061587;28;20085;-77
2021/05/29 01:19:50;;;;;;;3.05;1.48;;;14.40;70.50;;;;;;5034675;28;20021;-76
2021/05/29 01:22:38;;;;;;;1.70;1.20;;;14.30;70.70;;;;;;5051872;28;20028;-81
2021/05/29 01:25:12;;;;;;;1.90;1.30;;;14.30;71.40;;;;;;5064019;28;20036;-78
2021/05/29 01:27:38;;;;;;;1.77;1.45;;;14.30;72.10;;;;;;5068265;28;20117;-78
2021/05/29 01:30:05;;;;;;;2.38;1.48;;;14.30;71.90;;;;;;5049387;28;20051;-79
2021/05/29 01:32:34;;;;;;;1.98;1.60;;;14.30;72.60;;;;;;5055493;28;20452;-89
2021/05/29 01:35:02;;;;;;;2.95;1.42;;;14.20;72.00;;;;;;5050855;28;20032;-80
2021/05/29 01:37:29;;;;;;;2.88;1.55;;;14.20;71.70;;;;;;5059304;28;20032;-79
2021/05/29 01:39:56;;;;;;;2.42;1.38;;;14.20;72.00;;;;;;5046267;28;20032;-80
2021/05/29 01:42:22;;;;;;;2.13;1.40;;;14.20;72.10;;;;;;5054936;28;20125;-79
2021/05/29 01:44:48;;;;;;;1.95;1.60;;;14.20;72.00;;;;;;5055081;28;20525;-76
2021/05/29 01:47:13;;;;;;;1.92;1.55;;;14.20;72.70;;;;;;5049626;28;20021;-76
2021/05/29 01:49:39;;;;;;;1.98;1.63;;;14.20;72.10;;;;;;5054421;28;20078;-76
2021/05/29 01:52:05;;;;;;;3.53;1.80;;;14.10;72.20;;;;;;5071915;28;20372;-77
2021/05/29 01:54:31;;;;;;;2.17;1.50;;;14.10;72.60;;;;;;5072440;28;20496;-77
2021/05/29 01:56:57;;;;;;;4.05;1.85;;;14.00;72.40;;;;;;5072184;28;20393;-77
2021/05/29 01:59:23;;;;;;;3.97;1.70;;;14.00;72.50;;;;;;5054168;28;20101;-78
2021/05/29 02:01:49;;;;;;;2.72;1.60;;;14.00;72.70;;;;;;5054569;28;20413;-78
2021/05/29 02:04:15;;;;;;;3.38;1.80;;;13.90;72.70;;;;;;5071550;28;20062;-77
2021/05/29 02:06:40;;;;;;;2.38;1.60;;;13.90;72.80;;;;;;5054537;28;20453;-77
2021/05/29 02:09:07;;;;;;;2.47;1.70;;;13.90;73.40;;;;;;5054325;28;20020;-78
2021/05/29 02:11:33;;;;;;;2.10;1.33;;;13.90;73.20;;;;;;5072931;28;20025;-79
2021/05/29 02:13:59;;;;;;;2.95;1.40;;;13.90;73.50;;;;;;5055243;28;20405;-79
2021/05/29 02:16:25;;;;;;;3.05;1.50;;;13.80;73.40;;;;;;5072292;28;20446;-79
2021/05/29 02:18:50;;;;;;;2.17;1.58;;;13.80;73.60;;;;;;5072677;28;20113;-78
2021/05/29 02:21:16;;;;;;;2.30;1.60;;;13.80;73.80;;;;;;5072337;28;20031;-78
2021/05/29 02:23:47;;;;;;;3.53;1.60;;;13.70;73.80;;;;;;5054405;28;20493;-78
2021/05/29 02:26:16;;;;;;;2.83;1.73;;;13.70;73.90;;;;;;5072410;28;20054;-78
2021/05/29 02:28:44;;;;;;;1.52;1.40;;;13.60;73.70;;;;;;5055183;28;20029;-79
2021/05/29 02:31:11;;;;;;;1.42;1.30;;;13.60;74.10;;;;;;5075637;28;20063;-78
2021/05/29 02:33:37;;;;;;;1.88;1.40;;;13.60;73.90;;;;;;5076282;28;20049;-79
2021/05/29 02:36:04;;;;;;;2.40;1.40;;;13.60;73.70;;;;;;5076278;28;20432;-79
2021/05/29 02:38:32;;;;;;;1.50;1.27;;;13.50;73.80;;;;;;5057906;28;20124;-79
2021/05/29 02:40:58;;;;;;;1.85;1.38;;;13.50;74.10;;;;;;5076207;28;20029;-79
2021/05/29 02:43:25;;;;;;;1.90;1.17;;;13.50;73.80;;;;;;5058016;28;20031;-77
2021/05/29 02:45:51;;;;;;;2.08;1.17;;;13.50;73.90;;;;;;5058431;28;20064;-78
2021/05/29 02:48:16;;;;;;;1.95;1.42;;;13.50;74.30;;;;;;5057552;28;20469;-77
2021/05/29 02:50:43;;;;;;;2.97;1.33;;;13.50;74.20;;;;;;5056781;28;20080;-77
2021/05/29 02:53:11;;;;;;;2.35;1.42;;;13.50;74.00;;;;;;5066414;28;20449;-77
2021/05/29 02:55:37;;;;;;;3.55;1.30;;;13.40;74.80;;;;;;5075219;28;20040;-77
2021/05/29 02:58:03;;;;;;;2.25;1.42;;;13.40;74.30;;;;;;5075447;28;20115;-78
2021/05/29 03:00:32;;;;;;;3.25;1.38;;;13.30;74.60;;;;;;5063621;28;20512;-77
2021/05/29 03:02:59;;;;;;;2.05;1.40;;;13.30;75.00;;;;;;5054468;28;20029;-77
2021/05/29 03:05:25;;;;;;;2.08;1.10;;;13.30;74.90;;;;;;5037029;28;20067;-77
2021/05/29 03:07:51;;;;;;;3.35;1.40;;;13.30;75.20;;;;;;5037705;28;20029;-78
2021/05/29 03:10:18;;;;;;;2.40;1.25;;;13.20;75.20;;;;;;5036942;28;20031;-77
2021/05/29 03:12:44;;;;;;;2.33;1.58;;;13.20;75.20;;;;;;5055183;28;20131;-77
2021/05/29 03:15:14;;;;;;;2.13;1.55;;;13.20;75.10;;;;;;5054448;28;20493;-77
2021/05/29 03:17:40;;;;;;;1.92;1.17;;;13.20;75.50;;;;;;5074686;28;20024;-78
2021/05/29 03:20:08;;;;;;;2.35;1.30;;;13.20;75.60;;;;;;5057669;28;20028;-78
2021/05/29 03:22:35;;;;;;;2.53;1.30;;;13.20;75.10;;;;;;5074892;28;20071;-78
2021/05/29 03:25:01;;;;;;;1.80;1.60;;;13.10;74.80;;;;;;5075436;28;20116;-78
2021/05/29 03:27:26;;;;;;;2.28;1.35;;;13.10;74.80;;;;;;5074808;28;20064;-79
2021/05/29 03:29:53;;;;;;;2.33;1.60;;;13.00;75.00;;;;;;5057766;28;20025;-78
2021/05/29 03:32:18;;;;;;;1.30;1.08;;;13.00;75.10;;;;;;5057043;28;20032;-78
2021/05/29 03:34:44;;;;;;;1.50;1.17;;;12.90;75.00;;;;;;5057463;28;20032;-78
2021/05/29 03:37:11;;;;;;;2.05;1.48;;;12.90;75.00;;;;;;5057557;28;20021;-79
2021/05/29 03:39:37;;;;;;;1.48;1.25;;;12.90;75.10;;;;;;5075307;28;20020;-78
2021/05/29 03:42:04;;;;;;;2.75;1.30;;;12.90;75.20;;;;;;5056429;28;20058;-77
2021/05/29 03:44:30;;;;;;;3.72;1.42;;;12.90;75.30;;;;;;5053972;28;20039;-77
2021/05/29 03:46:55;;;;;;;2.15;1.20;;;12.90;75.00;;;;;;5037078;28;20025;-77
2021/05/29 03:49:21;;;;;;;1.73;1.20;;;12.90;74.90;;;;;;5053982;28;20029;-77
2021/05/29 03:51:46;;;;;;;2.10;1.05;;;12.90;74.80;;;;;;5037084;28;20120;-78
2021/05/29 03:54:12;;;;;;;1.80;1.30;;;12.90;74.60;;;;;;5036191;28;20500;-77
2021/05/29 03:56:38;;;;;;;1.90;1.25;;;12.90;75.00;;;;;;5053577;28;20033;-78
2021/05/29 03:59:04;;;;;;;4.13;1.15;;;12.90;74.90;;;;;;5036760;28;20021;-79
2021/05/29 04:01:31;;;;;;;1.67;1.20;;;12.80;74.90;;;;;;5036188;28;20462;-78
2021/05/29 04:03:57;;;;;;;2.05;1.23;;;12.80;75.40;;;;;;5037299;28;20040;-78
2021/05/29 04:06:23;;;;;;;1.60;1.23;;;12.80;74.80;;;;;;5036229;28;20581;-78
2021/05/29 04:08:49;;;;;;;2.55;1.00;;;12.70;75.00;;;;;;5036649;28;20065;-78
2021/05/29 04:11:15;;;;;;;1.63;1.20;;;12.70;74.80;;;;;;5052504;28;20451;-77
2021/05/29 04:13:40;;;;;;;2.88;1.42;;;12.60;74.90;;;;;;5036546;28;20040;-78
2021/05/29 04:16:06;;;;;;;2.00;1.10;;;12.60;75.10;;;;;;5054337;28;20025;-78
2021/05/29 04:18:32;;;;;;;1.55;1.10;;;12.60;75.10;;;;;;5053546;28;20416;-78
2021/05/29 04:20:57;;;;;;;2.55;1.05;;;12.60;75.30;;;;;;5036594;28;20453;-78
2021/05/29 04:23:23;;;;;;;3.53;1.25;;;12.60;75.60;;;;;;5020803;28;20493;-76
2021/05/29 04:25:48;;;;;;;1.80;1.27;;;12.60;76.00;;;;;;5012842;28;20034;-77
2021/05/29 04:28:15;;;;;;;1.92;1.20;;;12.50;76.30;;;;;;4995830;28;20029;-77
2021/05/29 04:30:41;;;;;;;3.85;1.30;;;12.50;76.30;;;;;;4996790;28;20109;-77
2021/05/29 04:33:06;;;;;;;1.30;1.20;;;12.50;76.20;;;;;;4996604;28;20057;-77
2021/05/29 04:35:32;;;;;;;1.80;1.30;;;12.60;76.00;;;;;;4996367;28;20044;-78
2021/05/29 04:37:58;;;;;;;1.23;0.90;;;12.50;75.60;;;;;;4997076;28;20458;-79
2021/05/29 04:40:25;;;;;;;3.33;1.40;;;12.50;76.10;;;;;;5012787;28;20026;-78
2021/05/29 04:42:52;;;;;;;2.13;1.10;;;12.60;76.10;;;;;;5012977;28;20022;-76
2021/05/29 04:45:18;;;;;;;3.28;1.15;;;12.60;76.20;;;;;;4995689;28;20083;-76
2021/05/29 04:47:44;;;;;;;1.17;1.02;;;12.60;76.20;;;;;;5013715;28;20075;-76
2021/05/29 04:50:12;;;;;;;1.30;1.20;;;12.60;76.20;;;;;;5013498;28;20501;-76
2021/05/29 04:52:37;;;;;;;2.45;1.20;;;12.60;75.90;;;;;;4995132;28;20037;-75
2021/05/29 04:55:05;;;;;;;1.77;1.20;;;12.60;75.60;;;;;;5012230;28;20037;-76
2021/05/29 04:57:30;;;;;;;3.20;1.20;;;12.60;75.50;;;;;;4995157;28;20030;-75
2021/05/29 04:59:56;;;;;;;2.10;1.20;;;12.60;75.80;;;;;;4995682;28;20474;-75
2021/05/29 05:02:22;;;;;;;2.78;1.23;;;12.60;75.80;;;;;;4995262;28;20116;-75
2021/05/29 05:04:47;;;;;;;1.63;1.15;;;12.60;75.60;;;;;;5012375;28;20121;-75
2021/05/29 05:07:13;;;;;;;1.85;1.25;;;12.60;75.80;;;;;;5012055;28;20451;-76
2021/05/29 05:09:39;;;;;;;1.38;1.20;;;12.60;75.80;;;;;;4995349;28;20022;-76
2021/05/29 05:12:05;;;;;;;2.13;1.20;;;12.70;75.90;;;;;;5013407;28;20426;-76
2021/05/29 05:14:30;;;;;;;3.60;1.35;;;12.70;75.70;;;;;;4995082;28;20030;-77
2021/05/29 05:16:56;;;;;;;1.25;1.00;;;12.60;75.70;;;;;;5013053;28;20100;-77
2021/05/29 05:19:22;;;;;;;2.42;1.20;;;12.70;75.60;;;;;;4995045;28;20460;-76
2021/05/29 05:21:47;;;;;;;1.70;1.10;;;12.70;75.70;;;;;;5012978;28;20518;-76
2021/05/29 05:24:13;;;;;;;1.88;0.98;;;12.70;75.40;;;;;;5013119;28;20434;-76
2021/05/29 05:26:39;;;;;;;1.95;1.13;;;12.70;75.70;;;;;;5011056;28;20117;-76
2021/05/29 05:29:05;;;;;;;1.17;1.08;;;12.70;75.30;;;;;;5011825;28;20033;-75
2021/05/29 05:31:32;;;;;;;4.55;1.15;;;12.80;75.40;;;;;;4994726;28;20061;-76
2021/05/29 05:33:58;;;;;;;3.25;1.20;;;12.80;75.40;;;;;;5012913;28;20030;-75
2021/05/29 05:36:24;;;;;;;2.28;1.20;;;12.80;75.70;;;;;;4994784;28;20022;-76
2021/05/29 05:38:51;;;;;;;1.70;1.25;;;12.80;76.20;;;;;;4995285;28;20030;-76
2021/05/29 05:41:17;;;;;;;1.60;1.00;;;12.80;76.70;;;;;;5011333;28;20021;-75
2021/05/29 05:43:45;;;;;;;1.20;1.10;;;12.80;76.40;;;;;;5012899;28;20037;-77
2021/05/29 05:46:12;;;;;;;1.58;1.10;;;12.90;76.40;;;;;;5013116;28;20060;-76
2021/05/29 05:48:38;;;;;;;1.88;1.23;;;12.90;76.40;;;;;;5012081;28;20796;-76
2021/05/29 05:51:05;;;;;;;2.58;1.08;;;13.00;76.40;;;;;;4995100;28;20120;-76
2021/05/29 05:53:31;;;;;;;1.80;1.35;;;13.00;76.20;;;;;;5012528;28;20463;-76
2021/05/29 05:56:01;;;;;;;1.45;1.20;;;13.00;75.90;;;;;;5011637;28;20030;-76
2021/05/29 05:58:28;;;;;;;2.25;1.10;;;13.00;76.50;;;;;;4994908;28;20057;-76
2021/05/29 06:00:53;;;;;;;2.85;1.35;;;13.10;76.10;;;;;;4995020;28;20049;-75
2021/05/29 06:03:20;;;;;;;1.60;1.40;;;13.10;75.20;;;;;;5012345;28;20030;-75
2021/05/29 06:05:47;;;;;;;2.95;1.60;;;13.20;75.90;;;;;;4997995;28;20033;-76
2021/05/29 06:08:13;;;;;;;2.13;1.10;;;13.20;75.70;;;;;;4999420;28;20040;-76
2021/05/29 06:10:39;;;;;;;3.40;1.00;;;13.20;75.20;;;;;;4998590;28;20022;-76
2021/05/29 06:13:06;;;;;;;1.27;1.10;;;13.30;75.30;;;;;;5016642;28;20033;-76
2021/05/29 06:20:48;;;;;;;2.35;1.30;;;13.40;74.30;;;;;;5015696;28;20033;-76
2021/05/29 06:23:14;;;;;;;;;;;13.40;74.50;;;;;;5035855;28;20083;-76
2021/05/29 06:25:41;;;;;;;3.13;1.63;;;13.50;75.00;;;;;;5037600;28;20688;-76
2021/05/29 06:28:07;;;;;;;2.20;1.13;;;13.50;74.90;;;;;;5038215;28;20075;-76
2021/05/29 06:30:35;;;;;;;2.60;1.17;;;13.60;74.80;;;;;;5037504;28;20029;-76
2021/05/29 06:33:01;;;;;;;2.03;1.00;;;13.60;74.70;;;;;;5037988;28;20032;-76
2021/05/29 06:35:26;;;;;;;1.40;1.10;;;13.60;74.90;;;;;;5037297;28;20029;-76
2021/05/29 06:37:53;;;;;;;2.88;1.20;;;13.70;74.60;;;;;;5054739;28;20036;-77
2021/05/29 06:40:19;;;;;;;2.67;1.00;;;13.80;74.50;;;;;;5056262;28;20033;-77
2021/05/29 06:42:45;;;;;;;1.90;1.00;;;13.80;74.70;;;;;;5055033;28;20470;-75
2021/05/29 06:45:11;;;;;;;1.85;1.13;;;13.90;73.70;;;;;;5037582;28;20083;-76
2021/05/29 06:47:37;;;;;;;1.30;1.10;;;13.80;73.00;;;;;;5053561;28;20098;-75
2021/05/29 06:50:05;;;;;;;2.70;1.10;;;13.90;73.30;;;;;;5054238;28;20028;-76
2021/05/29 06:52:33;;;;;;;2.15;1.30;;;13.90;73.30;;;;;;5036862;28;20527;-75
2021/05/29 07:00:27;;;;;;;2.78;1.27;;;14.10;72.20;;;;;;5054817;28;20163;-76
2021/05/29 07:02:52;;;;;;;3.42;1.15;;;14.10;71.90;;;;;;5037349;28;20060;-75
2021/05/29 07:05:18;;;;;;;2.38;1.02;;;14.20;72.00;;;;;;5037291;28;20033;-76
2021/05/29 07:07:44;;;;;;;2.67;1.20;;;14.20;72.10;;;;;;5036294;28;20032;-76
2021/05/29 07:10:10;;;;;;;1.55;1.10;;;14.20;72.00;;;;;;5037199;28;20040;-76
2021/05/29 07:12:36;;;;;;;1.35;1.00;;;14.30;71.70;;;;;;5054477;28;20051;-76
2021/05/29 07:15:02;;;;;;;1.73;1.05;;;14.30;71.60;;;;;;5054907;28;20033;-76
2021/05/29 07:17:37;;;;;;;2.08;1.17;;;14.30;71.70;;;;;;5035275;28;20028;-76
2021/05/29 07:20:04;;;;;;;2.33;1.05;;;14.30;70.70;;;;;;5037231;28;20482;-75
2021/05/29 07:22:29;;;;;;;2.92;1.00;;;14.40;70.70;;;;;;5035928;28;20053;-75
2021/05/29 07:24:55;;;;;;;4.07;0.90;;;14.50;71.50;;;;;;5036722;28;20037;-76
2021/05/29 07:27:20;;;;;;;1.73;1.00;;;14.50;70.80;;;;;;5054811;28;20025;-76
2021/05/29 07:29:46;;;;;;;2.63;1.02;;;14.50;70.80;;;;;;5036490;28;20382;-76
2021/05/29 07:32:12;;;;;;;1.95;1.05;;;14.50;70.70;;;;;;5053415;28;20032;-76
2021/05/29 07:34:37;;;;;;;2.03;0.95;;;14.60;70.90;;;;;;5054184;28;20073;-76
2021/05/29 07:37:03;;;;;;;1.45;0.90;;;14.70;69.90;;;;;;5036960;28;20028;-76
2021/05/29 07:39:29;;;;;;;3.15;1.00;;;14.70;69.90;;;;;;5054117;28;20518;-76
2021/05/29 07:41:55;;;;;;;1.17;1.08;;;14.80;69.60;;;;;;5055380;28;20104;-76
2021/05/29 07:44:20;;;;;;;1.38;1.08;;;14.80;70.00;;;;;;5063110;28;20082;-76
2021/05/29 07:46:47;;;;;;;2.85;0.95;;;14.90;69.60;;;;;;5058567;28;20565;-76
2021/05/29 07:49:12;;;;;;;4.28;1.13;;;14.90;69.70;;;;;;5043384;28;20116;-77
2021/05/29 07:51:38;;;;;;;2.05;0.88;;;14.90;68.20;;;;;;5055006;28;20500;-76
2021/05/29 07:54:09;;;;;;;1.42;1.08;;;15.00;68.40;;;;;;5045821;28;20041;-77
2021/05/29 07:56:35;;;;;;;1.88;0.82;;;15.10;67.10;;;;;;5051901;28;20386;-77
2021/05/29 07:59:06;;;;;;;2.65;0.95;;;15.20;67.30;;;;;;5036087;28;20036;-78
2021/05/29 08:01:33;;;;;;;1.92;1.10;;;15.20;67.20;;;;;;5035627;28;20100;-77
2021/05/29 08:03:59;;;;;;;1.00;0.80;;;15.20;67.00;;;;;;5036048;28;20037;-77
2021/05/29 08:06:26;;;;;;;1.25;1.02;;;15.20;66.30;;;;;;5056267;28;20037;-76
2021/05/29 08:08:51;;;;;;;1.35;1.10;;;15.30;66.10;;;;;;5055199;28;20033;-76
2021/05/29 08:11:23;;;;;;;3.30;1.00;;;15.30;66.20;;;;;;5056030;28;20388;-77
2021/05/29 08:13:51;;;;;;;1.45;0.90;;;15.20;66.30;;;;;;5055079;28;20029;-77
2021/05/29 08:16:18;;;;;;;2.10;1.10;;;15.40;66.70;;;;;;5055907;28;20024;-77
2021/05/29 08:18:44;;;;;;;1.50;1.02;;;15.40;65.80;;;;;;5055025;28;20385;-77
2021/05/29 08:21:11;;;;;;;2.10;1.10;;;15.50;65.30;;;;;;5055894;28;20028;-78
2021/05/29 08:23:37;;;;;;;1.35;0.70;;;15.60;64.80;;;;;;5055155;28;20048;-78
2021/05/29 08:26:02;;;;;;;1.52;1.05;;;15.60;64.40;;;;;;5055169;28;20038;-76
2021/05/29 08:28:29;;;;;;;1.02;0.88;;;15.60;65.90;;;;;;5055007;28;20028;-76
2021/05/29 08:30:54;;;;;;;1.90;1.00;;;15.60;64.10;;;;;;5055061;28;20020;-76
2021/05/29 08:33:20;;;;;;;3.00;0.93;;;15.70;64.50;;;;;;5055075;28;20380;-76
2021/05/29 08:35:46;;;;;;;1.38;0.80;;;15.70;64.20;;;;;;5054720;28;20408;-76
2021/05/29 08:38:11;;;;;;;1.67;0.95;;;15.70;64.50;;;;;;5055505;28;20421;-77
2021/05/29 08:40:37;;;;;;;1.08;0.90;;;15.80;63.40;;;;;;5054769;28;20024;-76
2021/05/29 08:43:03;;;;;;;2.08;0.90;;;15.80;61.70;;;;;;5054958;28;20033;-76
2021/05/29 08:45:29;;;;;;;1.10;1.00;;;16.00;61.40;;;;;;5072878;28;20025;-76
2021/05/29 08:47:57;;;;;;;2.03;1.00;;;16.00;62.30;;;;;;5054932;28;20032;-76
2021/05/29 08:50:24;;;;;;;1.15;0.90;;;16.00;63.00;;;;;;5073013;28;20595;-76
2021/05/29 08:52:49;;;;;;;1.60;1.10;;;16.00;63.50;;;;;;5071974;28;20584;-75
2021/05/29 08:55:16;;;;;;;2.00;0.82;;;16.10;61.50;;;;;;5054695;28;20043;-75
2021/05/29 08:57:43;;;;;;;1.83;0.73;;;16.10;60.90;;;;;;5053907;28;20078;-76
2021/05/29 09:00:12;;;;;;;1.40;1.00;;;16.10;60.50;;;;;;5072836;28;20032;-76
2021/05/29 09:03:06;;;;;;;0.65;0.65;;;16.10;59.00;;;;;;5071696;28;20024;-75
2021/05/29 09:05:38;;;;;;;4.75;0.90;;;16.20;56.80;;;;;;5054180;28;20485;-74
2021/05/29 09:08:09;;;;;;;1.05;0.82;;;16.30;57.60;;;;;;5072409;28;20024;-74
2021/05/29 09:10:50;;;;;;;1.60;0.90;;;16.40;57.80;;;;;;5053833;28;20036;-75
2021/05/29 09:13:19;;;;;;;1.00;0.70;;;16.40;57.70;;;;;;5066694;28;20273;-76
2021/05/29 09:15:51;;;;;;;0.88;0.70;;;16.40;58.40;;;;;;5060654;28;20040;-76
2021/05/29 09:18:35;;;;;;;1.48;0.88;;;16.50;59.30;;;;;;5057342;28;20021;-76
2021/05/29 09:21:27;;;;;;;2.15;0.80;;;16.50;60.00;;;;;;5061620;28;20056;-76
2021/05/29 09:24:14;;;;;;;2.25;0.85;;;16.50;59.40;;;;;;5053625;28;20056;-78
2021/05/29 09:26:54;;;;;;;0.98;0.85;;;16.60;59.50;;;;;;5031522;28;20116;-76
2021/05/29 09:29:21;;;;;;;1.75;0.95;;;16.70;59.50;;;;;;5034968;28;20017;-76
2021/05/29 09:31:58;;;;;;;2.40;1.00;;;16.70;60.10;;;;;;5034134;28;20032;-76
2021/05/29 09:34:41;;;;;;;1.98;0.88;;;16.90;59.20;;;;;;5034714;28;20033;-76
2021/05/29 09:37:13;;;;;;;1.63;0.82;;;17.00;57.80;;;;;;5052636;28;20020;-76
2021/05/29 09:39:41;;;;;;;4.38;0.90;;;17.00;57.90;;;;;;5033016;28;20028;-76
2021/05/29 09:42:08;;;;;;;1.80;1.00;;;17.10;57.80;;;;;;5034729;28;20052;-76
2021/05/29 09:44:35;;;;;;;2.20;0.80;;;17.10;57.70;;;;;;5033954;28;20076;-77
2021/05/29 09:47:04;;;;;;;3.08;0.90;;;17.10;58.00;;;;;;5052199;28;20021;-76
2021/05/29 09:49:50;;;;;;;1.23;0.80;;;17.20;57.80;;;;;;5034482;28;20466;-76
2021/05/29 09:52:25;;;;;;;1.42;0.90;;;17.20;56.60;;;;;;5041796;28;20433;-76
2021/05/29 09:54:52;;;;;;;1.27;0.85;;;17.20;57.10;;;;;;5043605;28;20071;-76
2021/05/29 09:57:17;;;;;;;0.75;0.60;;;17.30;55.50;;;;;;5034432;28;20025;-76
2021/05/29 10:00:00;;;;;;;1.38;0.80;;;17.30;55.70;;;;;;5053491;28;20384;-75
2021/05/29 10:02:27;;;;;;;2.28;1.00;;;17.40;55.80;;;;;;5068034;28;20021;-77
2021/05/29 10:04:57;;;;;;;2.28;0.70;;;17.30;54.40;;;;;;5053726;28;20826;-77
2021/05/29 10:07:25;;;;;;;1.15;0.98;;;17.40;53.90;;;;;;5052870;28;20036;-76
2021/05/29 10:09:51;;;;;;;1.63;0.80;;;17.50;55.00;;;;;;5056025;28;20025;-77
2021/05/29 10:12:18;;;;;;;0.98;0.70;;;17.50;54.20;;;;;;5058407;28;20033;-77
2021/05/29 10:14:44;;;;;;;3.05;0.90;;;17.50;55.00;;;;;;5034012;28;20037;-82
2021/05/29 10:17:12;;;;;;;3.03;0.93;;;17.60;55.60;;;;;;5052947;28;20033;-79
2021/05/29 10:19:41;;;;;;;1.88;1.17;;;17.60;54.80;;;;;;5034156;28;20036;-78
2021/05/29 10:22:17;;;;;;;2.03;0.85;;;17.50;54.20;;;;;;5051605;28;20123;-78
2021/05/29 10:24:44;;;;;;;0.80;0.75;;;17.50;50.70;;;;;;5029109;28;20102;-77
2021/05/29 10:27:13;;;;;;;1.27;0.80;;;17.50;51.70;;;;;;5034932;28;20036;-78
2021/05/29 10:29:40;;;;;;;2.10;0.90;;;17.60;53.50;;;;;;5034487;28;20025;-82
2021/05/29 10:32:11;;;;;;;1.60;0.95;;;17.60;52.60;;;;;;5035021;28;20025;-80
2021/05/29 10:35:05;;;;;;;1.95;0.93;;;17.60;52.80;;;;;;5052675;28;20036;-83
2021/05/29 10:37:37;;;;;;;1.33;1.02;;;17.60;51.90;;;;;;5031845;28;20520;-78
2021/05/29 10:40:34;;;;;;;0.88;0.85;;;17.60;52.60;;;;;;5035995;28;20089;-78
2021/05/29 10:43:05;;;;;;;1.30;0.90;;;17.60;52.20;;;;;;5037546;28;20029;-82
2021/05/29 10:46:03;;;;;;;1.30;0.70;;;17.60;52.60;;;;;;5046671;28;20040;-83
2021/05/29 10:48:28;;;;;;;1.52;1.05;;;17.60;52.70;;;;;;5034598;28;20075;-82
2021/05/29 10:50:57;;;;;;;1.00;0.80;;;17.60;52.20;;;;;;5051760;28;20056;-83
2021/05/29 10:53:37;;;;;;;1.85;0.82;;;17.60;52.80;;;;;;5044544;28;20535;-82
2021/05/29 10:56:23;;;;;;;1.00;0.70;;;17.60;52.60;;;;;;5046152;28;20045;-80
2021/05/29 10:59:12;;;;;;;0.90;0.60;;;17.70;51.50;;;;;;5051240;28;20359;-81
2021/05/29 11:01:59;;;;;;;0.88;0.60;;;17.80;50.60;;;;;;5054376;28;20088;-78
2021/05/29 11:04:24;;;;;;;2.67;0.90;;;17.80;51.70;;;;;;5069083;28;20105;-77
2021/05/29 11:06:57;;;;;;;1.40;1.00;;;17.80;52.10;;;;;;5047238;28;20466;-77
2021/05/29 11:09:26;;;;;;;2.72;0.70;;;17.80;52.10;;;;;;5043627;28;20025;-76
2021/05/29 11:11:59;;;;;;;1.05;0.80;;;17.90;51.20;;;;;;5045897;28;20028;-77
2021/05/29 11:14:30;;;;;;;2.58;0.70;;;17.90;51.60;;;;;;5052034;28;20082;-76
2021/05/29 11:16:57;;;;;;;2.35;0.73;;;18.00;52.10;;;;;;5039771;28;20025;-76
2021/05/29 11:19:25;;;;;;;2.15;0.80;;;18.20;54.00;;;;;;5056768;28;20044;-76
2021/05/29 11:22:12;;;;;;;0.85;0.60;;;18.20;51.50;;;;;;5045403;28;20115;-75
2021/05/29 11:24:52;;;;;;;0.85;0.70;;;18.20;50.90;;;;;;5070180;28;20079;-77
2021/05/29 11:27:28;;;;;;;1.13;0.77;;;18.20;50.10;;;;;;5060510;28;20021;-85
2021/05/29 11:30:03;;;;;;;2.03;0.80;;;18.20;50.50;;;;;;5063515;28;20063;-79
2021/05/29 11:32:58;;;;;;;4.82;0.90;;;18.10;50.70;;;;;;5051995;28;20047;-76
2021/05/29 11:35:29;;;;;;;1.25;0.70;;;18.20;49.70;;;;;;5042657;28;20032;-76
2021/05/29 11:38:00;;;;;;;0.75;0.50;;;18.10;49.80;;;;;;5062864;28;20028;-76
2021/05/29 11:40:54;;;;;;;0.85;0.70;;;18.10;50.50;;;;;;5051404;28;20024;-76
2021/05/29 11:43:36;;;;;;;1.33;0.60;;;18.20;49.30;;;;;;5059989;28;20021;-76
2021/05/29 11:46:05;;;;;;;1.63;0.73;;;18.30;50.60;;;;;;5043458;28;20057;-77
2021/05/29 11:48:39;;;;;;;1.38;0.93;;;18.30;49.40;;;;;;5069648;28;20085;-76
2021/05/29 11:51:10;;;;;;;0.93;0.65;;;18.30;49.90;;;;;;5040239;28;20032;-76
2021/05/29 11:53:37;;;;;;;2.43;0.90;;;18.40;49.60;;;;;;5047920;28;20051;-76
2021/05/29 11:56:05;;;;;;;0.50;0.50;;;18.60;49.70;;;;;;5047196;28;20040;-76
2021/05/29 11:59:01;;;;;;;0.65;0.65;;;18.60;48.70;;;;;;5056037;28;20029;-76
2021/05/29 12:01:35;;;;;;;0.63;0.50;;;18.70;47.70;;;;;;5034384;28;20029;-77
2021/05/29 12:04:09;;;;;;;1.10;0.60;;;18.80;47.10;;;;;;5042918;28;20037;-76
2021/05/29 12:06:58;;;;;;;0.55;0.50;;;18.90;47.00;;;;;;5070060;28;20039;-76
2021/05/29 12:09:26;;;;;;;0.45;0.40;;;19.00;46.00;;;;;;5060484;28;20025;-76
2021/05/29 12:11:53;;;;;;;1.50;0.50;;;19.20;44.80;;;;;;5055006;28;20495;-81
2021/05/29 12:14:32;;;;;;;0.28;0.25;;;19.20;45.20;;;;;;5053290;28;20036;-80
2021/05/29 12:17:04;;;;;;;0.65;0.50;;;19.30;46.30;;;;;;5069905;28;20213;-75
2021/05/29 12:19:43;;;;;;;0.65;0.45;;;19.40;45.70;;;;;;5043555;28;20420;-78
2021/05/29 12:22:19;;;;;;;0.65;0.32;;;19.50;45.40;;;;;;5055331;28;20033;-78
2021/05/29 12:24:46;;;;;;;0.63;0.40;;;19.70;45.60;;;;;;5056474;28;20059;-79
2021/05/29 12:27:23;;;;;;;0.93;0.47;;;19.80;44.60;;;;;;5050775;28;20021;-76
2021/05/29 12:29:57;;;;;;;0.52;0.40;;;19.80;43.00;;;;;;5045446;28;20028;-82
2021/05/29 12:32:33;;;;;;;1.55;0.50;;;19.90;42.50;;;;;;5074609;28;20024;-81
2021/05/29 12:34:59;;;;;;;94.53;43.80;;;20.10;44.60;;;;;;5057111;28;20179;-84
2021/05/29 12:37:36;;;;;;;24.85;12.13;;;20.20;44.40;;;;;;5049412;28;20037;-85
2021/05/29 12:40:12;;;;;;;3.35;2.17;;;20.40;45.00;;;;;;5046399;28;20032;-76
2021/05/29 12:42:49;;;;;;;2.33;1.38;;;20.50;42.00;;;;;;5055132;28;20263;-77
2021/05/29 12:45:17;;;;;;;0.80;0.70;;;20.60;42.70;;;;;;5047930;28;20029;-75
2021/05/29 12:48:00;;;;;;;1.55;0.75;;;20.70;41.90;;;;;;5043161;28;20363;-77
2021/05/29 12:50:39;;;;;;;1.40;0.50;;;20.80;41.20;;;;;;5054546;28;20025;-78
2021/05/29 12:53:10;;;;;;;0.60;0.50;;;20.90;40.40;;;;;;5035661;28;20032;-77
2021/05/29 12:55:36;;;;;;;0.40;0.40;;;21.00;41.50;;;;;;5034666;28;20067;-77
2021/05/29 12:58:31;;;;;;;0.50;0.45;;;21.10;40.70;;;;;;5045916;28;20113;-76
2021/05/29 13:09:25;;;;;;;0.60;0.40;;;21.70;39.30;;;;;;5056761;28;20091;-78
2021/05/29 13:11:51;;;;;;;0.88;0.40;;;21.80;39.60;;;;;;5053781;28;20035;-78
2021/05/29 13:14:31;;;;;;;0.73;0.40;;;22.00;38.50;;;;;;5050272;28;20033;-78
2021/05/29 13:16:58;;;;;;;0.77;0.30;;;22.20;37.90;;;;;;5051486;28;20033;-79